createdAt,value
2018-02-19T00:01:55.995Z,99863.17
2018-02-19T00:04:23.577Z,99860.91
2018-02-19T00:06:51.127Z,99862.09
2018-02-19T00:09:18.893Z,99865.49
2018-02-19T00:11:46.618Z,99874.13
2018-02-19T00:14:14.212Z,99867.64
2018-02-19T00:16:41.803Z,99870.30
2018-02-19T00:19:09.359Z,99869.87
2018-02-19T00:21:36.965Z,99865.61
2018-02-19T00:24:04.523Z,99867.81
2018-02-19T00:26:32.083Z,99858.80
2018-02-19T00:28:59.682Z,99855.97
2018-02-19T00:31:27.224Z,99859.84
2018-02-19T00:33:54.781Z,99864.11
2018-02-19T00:36:22.374Z,99858.59
2018-02-19T00:38:49.921Z,99859.72
2018-02-19T00:41:17.678Z,99854.22
2018-02-19T00:43:45.264Z,99849.59
2018-02-19T00:46:12.807Z,99851.09
2018-02-19T00:48:40.403Z,99850.07
2018-02-19T00:51:07.994Z,99851.23
2018-02-19T00:53:35.582Z,99847.63
2018-02-19T00:56:03.139Z,99852.69
2018-02-19T00:58:30.723Z,99849.69
2018-02-19T01:00:58.311Z,99850.95
2018-02-19T01:03:25.910Z,99851.75
2018-02-19T01:05:53.454Z,99850.45
2018-02-19T01:08:21.060Z,99850.47
2018-02-19T01:10:48.659Z,99848.59
2018-02-19T01:13:16.762Z,99847.36
2018-02-19T01:15:45.124Z,99852.20
2018-02-19T01:18:12.711Z,99854.29
2018-02-19T01:20:40.296Z,99853.50
2018-02-19T01:23:07.887Z,99850.13
2018-02-19T01:25:35.430Z,99848.73
2018-02-19T01:28:03.022Z,99852.19
2018-02-19T01:30:30.570Z,99849.33
2018-02-19T01:32:58.451Z,99848.73
2018-02-19T01:35:26.390Z,99850.75
2018-02-19T01:37:53.987Z,99845.89
2018-02-19T01:40:22.045Z,99854.09
2018-02-19T01:42:49.639Z,99854.05
2018-02-19T01:45:17.174Z,99854.42
2018-02-19T01:47:44.770Z,99855.29
2018-02-19T01:50:16.202Z,99855.55
2018-02-19T01:52:43.751Z,99853.29
2018-02-19T01:55:11.334Z,99855.14
2018-02-19T01:57:38.891Z,99855.55
2018-02-19T02:00:06.471Z,99854.27
2018-02-19T02:02:34.032Z,99848.91
2018-02-19T02:05:01.963Z,99857.17
2018-02-19T02:07:29.516Z,99857.34
2018-02-19T02:09:57.110Z,99854.76
2018-02-19T02:12:24.654Z,99853.36
2018-02-19T02:14:52.463Z,99852.07
2018-02-19T02:17:20.063Z,99848.74
2018-02-19T02:19:47.610Z,99852.56
2018-02-19T02:22:15.222Z,99856.50
2018-02-19T02:24:42.822Z,99855.35
2018-02-19T02:27:10.375Z,99854.63
2018-02-19T02:29:37.928Z,99847.39
2018-02-19T02:32:05.896Z,99847.21
2018-02-19T02:34:33.435Z,99851.02
2018-02-19T02:37:01.022Z,99851.33
2018-02-19T02:39:28.576Z,99852.56
2018-02-19T02:41:56.135Z,99849.42
2018-02-19T02:44:23.733Z,99858.88
2018-02-19T02:46:51.299Z,99859.32
2018-02-19T02:49:18.894Z,99857.84
2018-02-19T02:51:46.846Z,99861.72
2018-02-19T02:54:14.390Z,99860.30
2018-02-19T02:56:41.979Z,99858.03
2018-02-19T02:59:09.551Z,99862.64
2018-02-19T03:01:37.098Z,99860.51
2018-02-19T03:04:04.690Z,99856.48
2018-02-19T03:06:32.393Z,99855.48
2018-02-19T03:08:59.944Z,99855.09
2018-02-19T03:11:27.532Z,99853.03
2018-02-19T03:13:55.118Z,99857.95
2018-02-19T03:16:22.658Z,99856.12
2018-02-19T03:18:50.316Z,99855.30
2018-02-19T03:21:17.858Z,99858.69
2018-02-19T03:23:45.408Z,99858.21
2018-02-19T03:26:13.127Z,99856.84
2018-02-19T03:28:40.719Z,99856.79
2018-02-19T03:31:08.306Z,99856.34
2018-02-19T03:33:35.851Z,99854.91
2018-02-19T03:36:03.439Z,99847.53
2018-02-19T03:38:31.032Z,99851.45
2018-02-19T03:40:58.580Z,99857.31
2018-02-19T03:43:26.164Z,99855.84
2018-02-19T03:45:53.745Z,99855.75
2018-02-19T03:48:21.286Z,99861.72
2018-02-19T03:50:48.825Z,99859.33
2018-02-19T03:53:16.401Z,99851.81
2018-02-19T03:55:43.939Z,99851.70
2018-02-19T03:58:11.525Z,99853.80
2018-02-19T04:00:39.101Z,99851.30
2018-02-19T04:03:06.638Z,99848.80
2018-02-19T04:05:34.229Z,99846.17
2018-02-19T04:08:01.767Z,99852.54
2018-02-19T04:10:29.364Z,99851.26
2018-02-19T04:12:56.935Z,99857.84
2018-02-19T04:15:24.494Z,99859.41
2018-02-19T04:17:52.030Z,99857.45
2018-02-19T04:20:19.640Z,99860.81
2018-02-19T04:22:47.259Z,99860.47
2018-02-19T04:25:14.855Z,99861.44
2018-02-19T04:27:43.393Z,99868.27
2018-02-19T04:30:11.461Z,99871.67
2018-02-19T04:32:39.130Z,99871.63
2018-02-19T04:35:06.716Z,99878.08
2018-02-19T04:37:34.255Z,99880.52
2018-02-19T04:40:01.906Z,99874.81
2018-02-19T04:42:29.669Z,99872.42
2018-02-19T04:45:00.843Z,99874.08
2018-02-19T04:47:28.383Z,99875.25
2018-02-19T04:49:55.936Z,99881.59
2018-02-19T04:52:23.532Z,99877.00
2018-02-19T04:54:51.563Z,99881.03
2018-02-19T04:57:19.142Z,99880.33
2018-02-19T04:59:46.718Z,99883.19
2018-02-19T05:02:14.258Z,99882.22
2018-02-19T05:04:41.847Z,99879.02
2018-02-19T05:07:09.434Z,99882.24
2018-02-19T05:09:37.014Z,99888.95
2018-02-19T05:12:04.598Z,99892.12
2018-02-19T05:14:32.160Z,99896.98
2018-02-19T05:16:59.747Z,99890.80
2018-02-19T05:19:27.303Z,99896.06
2018-02-19T05:21:54.882Z,99891.45
2018-02-19T05:24:22.439Z,99890.25
2018-02-19T05:26:50.024Z,99895.61
2018-02-19T05:29:17.638Z,99887.14
2018-02-19T05:31:45.897Z,99892.59
2018-02-19T05:34:13.439Z,99886.72
2018-02-19T05:36:41.050Z,99892.62
2018-02-19T05:39:08.668Z,99893.18
2018-02-19T05:41:36.325Z,99897.20
2018-02-19T05:44:03.911Z,99900.58
2018-02-19T05:46:32.607Z,99891.56
2018-02-19T05:49:00.157Z,99893.39
2018-02-19T05:51:27.752Z,99902.39
2018-02-19T05:53:55.307Z,99907.25
2018-02-19T05:56:22.889Z,99910.17
2018-02-19T05:58:50.427Z,99919.06
2018-02-19T06:01:18.811Z,99921.38
2018-02-19T06:03:46.820Z,99923.45
2018-02-19T06:06:14.599Z,99923.98
2018-02-19T06:08:42.150Z,99921.61
2018-02-19T06:11:10.301Z,99926.76
2018-02-19T06:13:43.041Z,99926.92
2018-02-19T06:16:10.640Z,99920.70
2018-02-19T06:18:38.212Z,99917.61
2018-02-19T06:21:05.836Z,99924.53
2018-02-19T06:23:33.398Z,99922.89
2018-02-19T06:26:00.986Z,99924.77
2018-02-19T06:28:28.602Z,99927.34
2018-02-19T06:30:56.201Z,99928.38
2018-02-19T06:33:23.738Z,99931.26
2018-02-19T06:35:51.326Z,99929.86
2018-02-19T06:38:19.199Z,99934.39
2018-02-19T06:40:46.752Z,99927.08
2018-02-19T06:43:14.340Z,99929.89
2018-02-19T06:45:41.948Z,99932.33
2018-02-19T06:48:09.527Z,99934.16
2018-02-19T06:50:37.081Z,99933.09
2018-02-19T06:53:04.700Z,99930.87
2018-02-19T06:55:32.340Z,99934.76
2018-02-19T06:57:59.922Z,99934.27
2018-02-19T07:00:27.474Z,99933.34
2018-02-19T07:02:55.078Z,99931.48
2018-02-19T07:05:22.655Z,99931.81
2018-02-19T07:07:50.260Z,99932.13
2018-02-19T07:10:17.855Z,99929.75
2018-02-19T07:12:45.485Z,99940.27
2018-02-19T07:15:13.151Z,99933.84
2018-02-19T07:17:40.856Z,99926.80
2018-02-19T07:20:08.422Z,99928.11
2018-02-19T07:22:36.297Z,99934.70
2018-02-19T07:25:04.043Z,99935.16
2018-02-19T07:27:31.599Z,99935.98
2018-02-19T07:29:59.712Z,99936.73
2018-02-19T07:32:27.341Z,99939.65
2018-02-19T07:34:54.981Z,99935.88
2018-02-19T07:37:23.102Z,99939.08
2018-02-19T07:39:50.684Z,99939.65
2018-02-19T07:42:18.306Z,99942.77
2018-02-19T07:44:45.956Z,99951.77
2018-02-19T07:47:13.571Z,99953.65
2018-02-19T07:49:41.224Z,99952.38
2018-02-19T07:52:08.775Z,99952.86
2018-02-19T07:54:36.419Z,99951.75
2018-02-19T07:57:04.950Z,99950.62
2018-02-19T07:59:32.511Z,99948.07
2018-02-19T08:02:00.109Z,99948.39
2018-02-19T08:04:28.676Z,99948.09
2018-02-19T08:06:56.263Z,99948.21
2018-02-19T08:09:23.802Z,99947.31
2018-02-19T08:11:51.492Z,99949.48
2018-02-19T08:14:19.555Z,99949.36
2018-02-19T08:16:49.233Z,99952.35
2018-02-19T08:19:17.199Z,99952.78
2018-02-19T08:21:44.739Z,99957.67
2018-02-19T08:24:12.346Z,99952.95
2018-02-19T08:26:39.901Z,99959.17
2018-02-19T08:29:07.487Z,99960.64
2018-02-19T08:31:35.385Z,99958.19
2018-02-19T08:34:03.040Z,99959.67
2018-02-19T08:36:30.683Z,99959.76
2018-02-19T08:38:58.344Z,99963.41
2018-02-19T08:41:25.943Z,99962.61
2018-02-19T08:43:53.500Z,99957.70
2018-02-19T08:46:21.099Z,99961.19
2018-02-19T08:48:48.718Z,99956.16
2018-02-19T08:51:17.868Z,99954.77
2018-02-19T08:53:45.643Z,99955.86
2018-02-19T08:56:13.207Z,99958.38
2018-02-19T08:58:40.813Z,99958.89
2018-02-19T09:01:08.389Z,99963.22
2018-02-19T09:03:36.242Z,99960.82
2018-02-19T09:06:04.871Z,99961.60
2018-02-19T09:08:32.483Z,99959.78
2018-02-19T09:11:00.108Z,99959.55
2018-02-19T09:13:28.872Z,99950.97
2018-02-19T09:15:56.704Z,99951.53
2018-02-19T09:18:24.680Z,99951.02
2018-02-19T09:20:52.235Z,99957.86
2018-02-19T09:23:19.834Z,99950.91
2018-02-19T09:25:47.774Z,99953.07
2018-02-19T09:28:15.364Z,99954.79
2018-02-19T09:30:43.565Z,99955.64
2018-02-19T09:33:11.180Z,99953.84
2018-02-19T09:35:38.819Z,99959.77
2018-02-19T09:38:06.402Z,99958.91
2018-02-19T09:40:34.065Z,99955.91
2018-02-19T09:43:01.624Z,99960.55
2018-02-19T09:45:29.420Z,99963.64
2018-02-19T09:47:56.978Z,99957.17
2018-02-19T09:50:26.630Z,99954.53
2018-02-19T09:52:54.547Z,99951.06
2018-02-19T09:55:22.103Z,99956.34
2018-02-19T09:57:49.769Z,99945.91
2018-02-19T10:00:17.340Z,99945.96
2018-02-19T10:02:44.948Z,99942.91
2018-02-19T10:05:12.598Z,99942.51
2018-02-19T10:07:40.256Z,99944.28
2018-02-19T10:10:08.820Z,99938.66
2018-02-19T10:12:36.419Z,99932.58
2018-02-19T10:15:04.015Z,99932.10
2018-02-19T10:17:31.554Z,99929.48
2018-02-19T10:19:59.119Z,99927.73
2018-02-19T10:22:26.716Z,99929.02
2018-02-19T10:24:54.260Z,99923.81
2018-02-19T10:27:22.620Z,99928.14
2018-02-19T10:29:50.203Z,99924.67
2018-02-19T10:32:17.741Z,99921.61
2018-02-19T10:34:45.326Z,99924.67
2018-02-19T10:37:12.930Z,99926.66
2018-02-19T10:39:40.563Z,99921.34
2018-02-19T10:42:08.218Z,99912.67
2018-02-19T10:44:35.843Z,99925.78
2018-02-19T10:47:03.409Z,99920.56
2018-02-19T10:49:30.975Z,99915.78
2018-02-19T10:51:58.573Z,99917.52
2018-02-19T10:54:26.188Z,99909.52
2018-02-19T10:56:53.795Z,99916.38
2018-02-19T10:59:21.376Z,99916.42
2018-02-19T11:01:48.925Z,99907.69
2018-02-19T11:04:16.637Z,99908.11
2018-02-19T11:06:44.390Z,99905.73
2018-02-19T11:09:12.733Z,99905.93
2018-02-19T11:11:40.332Z,99903.06
2018-02-19T11:14:07.933Z,99905.09
2018-02-19T11:16:35.479Z,99895.23
2018-02-19T11:19:03.030Z,99899.72
2018-02-19T11:21:30.612Z,99901.27
2018-02-19T11:23:58.154Z,99904.38
2018-02-19T11:26:26.580Z,99901.48
2018-02-19T11:28:54.168Z,99901.02
2018-02-19T11:31:22.570Z,99898.78
2018-02-19T11:33:50.147Z,99897.95
2018-02-19T11:36:17.708Z,99897.95
2018-02-19T11:38:55.272Z,99893.70
2018-02-19T11:41:13.062Z,99892.83
2018-02-19T11:43:40.664Z,99892.85
2018-02-19T11:46:08.346Z,99885.94
2018-02-19T11:48:35.969Z,99892.52
2018-02-19T11:51:04.256Z,99889.91
2018-02-19T11:53:31.805Z,99886.04
2018-02-19T11:55:59.403Z,99887.77
2018-02-19T11:58:27.026Z,99882.52
2018-02-19T12:00:54.625Z,99885.61
2018-02-19T12:03:22.174Z,99889.53
2018-02-19T12:05:50.287Z,99888.73
2018-02-19T12:08:18.654Z,99885.77
2018-02-19T12:10:46.235Z,99892.80
2018-02-19T12:13:13.820Z,99893.80
2018-02-19T12:15:42.677Z,99896.58
2018-02-19T12:18:10.277Z,99894.41
2018-02-19T12:20:38.668Z,99897.50
2018-02-19T12:23:06.258Z,99901.91
2018-02-19T12:25:34.087Z,99904.97
2018-02-19T12:28:01.635Z,99905.42
2018-02-19T12:30:29.215Z,99902.70
2018-02-19T12:32:56.815Z,99902.73
2018-02-19T12:35:24.416Z,99908.34
2018-02-19T12:37:52.007Z,99904.80
2018-02-19T12:40:19.833Z,99911.53
2018-02-19T12:42:47.421Z,99905.88
2018-02-19T12:45:15.625Z,99907.23
2018-02-19T12:47:43.453Z,99902.08
2018-02-19T12:50:11.627Z,99912.19
2018-02-19T12:52:39.219Z,99910.09
2018-02-19T12:55:06.789Z,99909.70
2018-02-19T12:57:34.398Z,99904.09
2018-02-19T13:00:01.939Z,99898.98
2018-02-19T13:02:29.517Z,99896.05
2018-02-19T13:04:58.038Z,99902.73
2018-02-19T13:07:25.728Z,99898.31
2018-02-19T13:09:53.619Z,99892.25
2018-02-19T13:12:21.212Z,99887.98
2018-02-19T13:14:48.762Z,99889.78
2018-02-19T13:17:17.306Z,99885.11
2018-02-19T13:19:44.868Z,99883.45
2018-02-19T13:22:12.465Z,99882.14
2018-02-19T13:24:40.051Z,99882.66
2018-02-19T13:27:08.220Z,99881.02
2018-02-19T13:29:35.818Z,99885.56
2018-02-19T13:32:04.306Z,99876.14
2018-02-19T13:34:31.921Z,99883.24
2018-02-19T13:36:59.524Z,99880.34
2018-02-19T13:39:27.124Z,99880.77
2018-02-19T13:41:54.675Z,99880.63
2018-02-19T13:44:22.227Z,99881.23
2018-02-19T13:46:50.349Z,99874.83
2018-02-19T13:49:18.924Z,99871.39
2018-02-19T13:51:47.449Z,99864.39
2018-02-19T13:54:15.890Z,99871.12
2018-02-19T13:56:44.462Z,99868.91
2018-02-19T13:59:13.146Z,99869.95
2018-02-19T14:01:43.561Z,99869.07
2018-02-19T14:04:14.008Z,99868.32
2018-02-19T14:06:42.334Z,99873.61
2018-02-19T14:09:11.572Z,99870.48
2018-02-19T14:11:39.971Z,99873.53
2018-02-19T14:14:08.316Z,99871.80
2018-02-19T14:16:35.903Z,99872.98
2018-02-19T14:19:04.463Z,99873.58
2018-02-19T14:21:32.003Z,99874.56
2018-02-19T14:23:59.578Z,99871.73
2018-02-19T14:26:27.824Z,99869.63
2018-02-19T14:28:55.443Z,99874.55
2018-02-19T14:31:22.995Z,99873.92
2018-02-19T14:33:51.302Z,99878.20
2018-02-19T14:36:19.114Z,99873.63
2018-02-19T14:38:47.384Z,99869.20
2018-02-19T14:41:14.976Z,99873.70
2018-02-19T14:43:42.530Z,99873.87
2018-02-19T14:46:11.010Z,99870.07
2018-02-19T14:48:38.661Z,99870.58
2018-02-19T14:51:06.506Z,99875.41
2018-02-19T14:53:34.336Z,99872.58
2018-02-19T14:56:02.806Z,99875.70
2018-02-19T14:58:31.160Z,99869.78
2018-02-19T15:00:58.694Z,99875.91
2018-02-19T15:03:26.872Z,99875.61
2018-02-19T15:05:54.490Z,99869.47
2018-02-19T15:08:23.012Z,99874.40
2018-02-19T15:10:50.594Z,99876.66
2018-02-19T15:13:18.171Z,99875.81
2018-02-19T15:15:45.715Z,99885.89
2018-02-19T15:18:13.770Z,99883.34
2018-02-19T15:20:41.309Z,99878.12
2018-02-19T15:23:09.910Z,99887.25
2018-02-19T15:25:39.399Z,99882.99
2018-02-19T15:28:07.996Z,99888.22
2018-02-19T15:30:37.034Z,99885.23
2018-02-19T15:33:04.594Z,99887.86
2018-02-19T15:35:32.147Z,99884.85
2018-02-19T15:37:59.878Z,99893.97
2018-02-19T15:40:28.101Z,99897.09
2018-02-19T15:42:57.178Z,99896.64
2018-02-19T15:45:24.805Z,99894.89
2018-02-19T15:47:57.162Z,99901.03
2018-02-19T15:50:25.749Z,99899.30
2018-02-19T15:52:54.432Z,99897.16
2018-02-19T15:55:23.700Z,99898.05
2018-02-19T15:57:52.162Z,99898.92
2018-02-19T16:00:20.218Z,99906.33
2018-02-19T16:02:48.639Z,99907.63
2018-02-19T16:05:16.200Z,99913.28
2018-02-19T16:07:43.800Z,99908.06
2018-02-19T16:10:13.108Z,99906.38
2018-02-19T16:12:41.698Z,99913.83
2018-02-19T16:15:10.168Z,99911.65
2018-02-19T16:17:37.920Z,99919.54
2018-02-19T16:20:06.471Z,99923.45
2018-02-19T16:22:34.483Z,99923.03
2018-02-19T16:25:02.014Z,99925.26
2018-02-19T16:27:30.644Z,99920.13
2018-02-19T16:29:59.956Z,99929.72
2018-02-19T16:32:28.491Z,99924.54
2018-02-19T16:34:57.326Z,99924.99
2018-02-19T16:37:25.069Z,99924.56
2018-02-19T16:39:53.315Z,99928.05
2018-02-19T16:42:21.716Z,99927.17
2018-02-19T16:44:49.462Z,99929.78
2018-02-19T16:47:17.087Z,99933.73
2018-02-19T16:49:44.629Z,99932.84
2018-02-19T16:52:12.946Z,99937.20
2018-02-19T16:54:40.496Z,99936.31
2018-02-19T16:57:08.222Z,99934.16
2018-02-19T16:59:35.780Z,99932.42
2018-02-19T17:02:05.584Z,99938.53
2018-02-19T17:04:34.098Z,99939.81
2018-02-19T17:07:02.732Z,99938.53
2018-02-19T17:09:31.597Z,99937.24
2018-02-19T17:12:00.118Z,99932.89
2018-02-19T17:14:29.773Z,99938.13
2018-02-19T17:16:57.548Z,99935.52
2018-02-19T17:19:26.170Z,99941.14
2018-02-19T17:21:53.730Z,99934.13
2018-02-19T17:24:21.995Z,99935.03
2018-02-19T17:26:49.598Z,99938.48
2018-02-19T17:29:17.219Z,99936.27
2018-02-19T17:31:46.943Z,99938.06
2018-02-19T17:34:14.526Z,99934.99
2018-02-19T17:36:42.123Z,99936.73
2018-02-19T17:39:10.015Z,99937.17
2018-02-19T17:41:37.619Z,99935.02
2018-02-19T17:44:06.470Z,99937.12
2018-02-19T17:46:34.572Z,99927.48
2018-02-19T17:49:03.011Z,99927.06
2018-02-19T17:51:32.299Z,99925.28
2018-02-19T17:54:03.166Z,99930.01
2018-02-19T17:56:31.561Z,99924.41
2018-02-19T17:58:59.120Z,99924.87
2018-02-19T18:01:28.636Z,99925.75
2018-02-19T18:03:56.548Z,99924.87
2018-02-19T18:06:24.277Z,99925.26
2018-02-19T18:08:51.896Z,99922.21
2018-02-19T18:11:19.504Z,99923.17
2018-02-19T18:13:47.738Z,99928.39
2018-02-19T18:16:15.333Z,99926.66
2018-02-19T18:18:43.837Z,99928.44
2018-02-19T18:21:12.347Z,99928.91
2018-02-19T18:23:39.896Z,99930.69
2018-02-19T18:26:08.382Z,99925.02
2018-02-19T18:28:35.936Z,99925.48
2018-02-19T18:31:03.531Z,99929.85
2018-02-19T18:33:31.088Z,99937.69
2018-02-19T18:35:58.738Z,99932.48
2018-02-19T18:38:27.107Z,99929.94
2018-02-19T18:40:54.956Z,99930.84
2018-02-19T18:43:22.555Z,99934.79
2018-02-19T18:45:50.160Z,99933.55
2018-02-19T18:48:17.712Z,99936.17
2018-02-19T18:50:46.390Z,99934.96
2018-02-19T18:53:14.734Z,99938.47
2018-02-19T18:55:43.595Z,99928.43
2018-02-19T18:58:11.536Z,99932.81
2018-02-19T19:00:39.087Z,99931.96
2018-02-19T19:03:07.440Z,99932.81
2018-02-19T19:05:35.284Z,99928.92
2018-02-19T19:08:14.575Z,99925.45
2018-02-19T19:10:45.806Z,99928.06
2018-02-19T19:13:13.384Z,99928.97
2018-02-19T19:15:40.979Z,99927.69
2018-02-19T19:18:08.527Z,99928.05
2018-02-19T19:20:36.130Z,99929.80
2018-02-19T19:23:04.672Z,99926.81
2018-02-19T19:25:32.261Z,99921.58
2018-02-19T19:27:59.805Z,99927.70
2018-02-19T19:30:27.420Z,99923.34
2018-02-19T19:32:55.270Z,99920.26
2018-02-19T19:35:23.315Z,99915.95
2018-02-19T19:37:50.864Z,99927.70
2018-02-19T19:40:18.465Z,99922.05
2018-02-19T19:42:46.053Z,99925.13
2018-02-19T19:45:13.610Z,99921.27
2018-02-19T19:47:42.032Z,99927.31
2018-02-19T19:50:10.278Z,99920.79
2018-02-19T19:52:38.153Z,99919.56
2018-02-19T19:55:05.738Z,99922.63
2018-02-19T19:57:33.303Z,99920.02
2018-02-19T20:00:00.903Z,99918.72
2018-02-19T20:02:28.459Z,99913.49
2018-02-19T20:04:57.210Z,99910.05
2018-02-19T20:07:24.814Z,99912.23
2018-02-19T20:09:52.361Z,99906.61
2018-02-19T20:12:20.232Z,99908.80
2018-02-19T20:14:48.610Z,99907.48
2018-02-19T20:17:16.845Z,99909.70
2018-02-19T20:19:44.441Z,99906.66
2018-02-19T20:22:12.040Z,99905.81
2018-02-19T20:24:40.006Z,99901.91
2018-02-19T20:27:07.763Z,99901.48
2018-02-19T20:29:35.369Z,99898.01
2018-02-19T20:32:03.232Z,99895.00
2018-02-19T20:34:30.885Z,99907.60
2018-02-19T20:36:58.784Z,99897.13
2018-02-19T20:39:28.565Z,99904.98
2018-02-19T20:41:56.184Z,99893.73
2018-02-19T20:44:24.558Z,99902.87
2018-02-19T20:46:52.140Z,99899.38
2018-02-19T20:49:19.688Z,99899.38
2018-02-19T20:51:48.335Z,99894.63
2018-02-19T20:54:16.855Z,99889.41
2018-02-19T20:56:44.790Z,99895.98
2018-02-19T20:59:13.293Z,99886.34
2018-02-19T21:01:40.837Z,99890.67
2018-02-19T21:04:09.205Z,99891.09
2018-02-19T21:06:36.809Z,99884.56
2018-02-19T21:09:05.396Z,99888.95
2018-02-19T21:11:33.375Z,99882.03
2018-02-19T21:14:03.408Z,99885.58
2018-02-19T21:16:30.996Z,99882.97
2018-02-19T21:18:58.595Z,99886.02
2018-02-19T21:21:26.183Z,99878.22
2018-02-19T21:23:54.154Z,99882.16
2018-02-19T21:26:22.294Z,99880.44
2018-02-19T21:28:49.962Z,99885.69
2018-02-19T21:31:17.502Z,99887.89
2018-02-19T21:33:45.102Z,99887.46
2018-02-19T21:36:13.107Z,99876.14
2018-02-19T21:38:41.683Z,99880.91
2018-02-19T21:41:09.252Z,99876.16
2018-02-19T21:43:36.830Z,99879.63
2018-02-19T21:46:04.423Z,99886.16
2018-02-19T21:48:32.026Z,99878.30
2018-02-19T21:50:59.783Z,99880.92
2018-02-19T21:53:28.236Z,99881.77
2018-02-19T21:55:55.788Z,99883.55
2018-02-19T21:58:23.376Z,99887.46
2018-02-19T22:00:51.439Z,99887.45
2018-02-19T22:03:18.971Z,99890.08
2018-02-19T22:05:46.563Z,99893.09
2018-02-19T22:08:14.856Z,99893.04
2018-02-19T22:10:42.671Z,99893.11
2018-02-19T22:13:10.395Z,99896.15
2018-02-19T22:15:37.984Z,99897.43
2018-02-19T22:18:05.539Z,99900.88
2018-02-19T22:20:33.160Z,99893.89
2018-02-19T22:23:00.701Z,99901.73
2018-02-19T22:25:28.284Z,99906.48
2018-02-19T22:27:55.824Z,99908.19
2018-02-19T22:30:23.416Z,99903.38
2018-02-19T22:32:50.959Z,99905.56
2018-02-19T22:35:18.497Z,99908.17
2018-02-19T22:37:46.053Z,99902.93
2018-02-19T22:40:13.588Z,99905.09
2018-02-19T22:42:41.272Z,99905.59
2018-02-19T22:45:08.971Z,99902.59
2018-02-19T22:47:36.509Z,99896.97
2018-02-19T22:50:04.046Z,99898.67
2018-02-19T22:52:31.623Z,99894.31
2018-02-19T22:54:59.216Z,99895.66
2018-02-19T22:57:26.848Z,99898.67
2018-02-19T22:59:54.430Z,99894.78
2018-02-19T23:02:21.967Z,99885.69
2018-02-19T23:04:49.510Z,99880.89
2018-02-19T23:07:17.100Z,99882.67
2018-02-19T23:09:44.630Z,99881.37
2018-02-19T23:12:12.208Z,99883.09
2018-02-19T23:14:40.572Z,99871.80
2018-02-19T23:17:08.115Z,99878.37
2018-02-19T23:19:36.001Z,99871.81
2018-02-19T23:22:03.562Z,99870.04
2018-02-19T23:24:31.138Z,99870.04
2018-02-19T23:26:58.927Z,99866.56
2018-02-19T23:29:26.519Z,99864.40
2018-02-19T23:31:54.050Z,99863.95
2018-02-19T23:34:21.586Z,99862.20
2018-02-19T23:36:49.140Z,99856.13
2018-02-19T23:39:16.745Z,99859.59
2018-02-19T23:41:44.284Z,99860.95
2018-02-19T23:44:11.830Z,99860.52
2018-02-19T23:47:13.713Z,99860.97
2018-02-19T23:50:04.450Z,99866.22
2018-02-19T23:52:44.334Z,99862.77
2018-02-19T23:55:11.894Z,99864.52
2018-02-19T23:57:54.868Z,99855.79
